createdAt,value
2022-10-11T00:01:56.244Z,21.20
2022-10-11T00:05:11.650Z,18.20
2022-10-11T00:08:15.217Z,23.80
2022-10-11T00:11:31.659Z,21.25
2022-10-11T00:14:46.805Z,25.00
2022-10-11T00:18:05.232Z,23.00
2022-10-11T00:21:21.808Z,23.80
2022-10-11T00:24:36.157Z,23.00
2022-10-11T00:27:51.169Z,23.00
2022-10-11T00:31:08.901Z,23.00
2022-10-11T00:34:24.359Z,25.40
2022-10-11T00:37:40.538Z,26.25
2022-10-11T00:40:56.045Z,29.60
2022-10-11T00:44:13.576Z,28.00
2022-10-11T00:47:29.616Z,29.60
2022-10-11T00:50:44.228Z,28.20
2022-10-11T00:54:02.990Z,27.00
2022-10-11T00:57:20.946Z,30.00
2022-10-11T01:00:35.785Z,29.00
2022-10-11T01:03:50.611Z,30.00
2022-10-11T01:07:05.696Z,26.60
2022-10-11T01:10:20.732Z,28.25
2022-10-11T01:13:49.096Z,26.00
2022-10-11T01:17:14.613Z,27.60
2022-10-11T01:20:52.337Z,27.25
2022-10-11T01:24:48.108Z,29.00
2022-10-11T01:28:19.302Z,25.00
2022-10-11T01:31:41.585Z,26.80
2022-10-11T01:34:59.908Z,28.00
2022-10-11T01:38:29.160Z,26.20
2022-10-11T01:41:48.598Z,27.00
2022-10-11T01:45:03.660Z,27.00
2022-10-11T01:48:18.340Z,27.40
2022-10-11T01:51:36.952Z,26.00
2022-10-11T01:55:18.486Z,29.60
2022-10-11T01:58:42.500Z,27.00
2022-10-11T02:02:10.499Z,28.00
2022-10-11T02:05:36.738Z,25.00
2022-10-11T02:09:04.378Z,30.00
2022-10-11T02:12:26.920Z,28.00
2022-10-11T02:15:43.044Z,27.60
2022-10-11T02:18:59.999Z,30.20
2022-10-11T02:22:21.591Z,29.50
2022-10-11T02:25:49.202Z,28.00
2022-10-11T02:29:08.737Z,30.00
2022-10-11T02:32:26.655Z,30.00
2022-10-11T02:35:46.773Z,31.00
2022-10-11T02:39:13.460Z,33.00
2022-10-11T02:42:34.029Z,32.00
2022-10-11T02:45:55.055Z,33.00
2022-10-11T02:49:11.284Z,31.40
2022-10-11T02:52:26.430Z,32.00
2022-10-11T02:55:41.392Z,31.67
2022-10-11T02:58:56.185Z,30.00
2022-10-11T03:02:11.281Z,30.00
2022-10-11T03:05:26.279Z,25.00
2022-10-11T03:08:41.308Z,25.20
2022-10-11T03:11:56.185Z,26.25
2022-10-11T03:15:12.081Z,28.40
2022-10-11T03:18:27.801Z,29.80
2022-10-11T03:21:42.826Z,30.00
2022-10-11T03:25:02.702Z,27.00
2022-10-11T03:28:19.335Z,27.40
2022-10-11T03:31:34.246Z,27.60
2022-10-11T03:34:49.211Z,30.00
2022-10-11T03:38:04.284Z,30.00
2022-10-11T03:41:19.241Z,30.00
2022-10-11T03:44:34.184Z,28.60
2022-10-11T03:47:49.251Z,29.40
2022-10-11T03:51:04.631Z,27.40
2022-10-11T03:54:19.460Z,27.20
2022-10-11T03:57:34.431Z,27.00
2022-10-11T04:00:51.386Z,28.00
2022-10-11T04:04:06.304Z,29.80
2022-10-11T04:07:20.827Z,25.50
2022-10-11T04:10:35.818Z,29.00
2022-10-11T04:13:50.782Z,29.60
2022-10-11T04:17:05.794Z,29.00
2022-10-11T04:20:20.918Z,28.25
2022-10-11T04:23:36.120Z,29.33
2022-10-11T04:26:50.797Z,28.00
2022-10-11T04:30:06.986Z,28.00
2022-10-11T04:33:22.860Z,28.20
2022-10-11T04:36:39.117Z,28.25
2022-10-11T04:39:54.067Z,30.00
2022-10-11T04:43:08.984Z,30.00
2022-10-11T04:46:24.244Z,31.00
2022-10-11T04:49:39.034Z,30.50
2022-10-11T04:52:54.189Z,29.60
2022-10-11T04:56:11.945Z,28.20
2022-10-11T04:59:27.352Z,26.40
2022-10-11T05:02:42.571Z,29.00
2022-10-11T05:06:00.914Z,29.00
2022-10-11T05:09:18.800Z,30.60
2022-10-11T05:12:33.568Z,30.00
2022-10-11T05:15:48.847Z,31.00
2022-10-11T05:19:03.581Z,31.80
2022-10-11T05:22:18.567Z,30.40
2022-10-11T05:25:33.622Z,30.00
2022-10-11T05:28:49.206Z,30.00
2022-10-11T05:32:04.081Z,30.00
2022-10-11T05:35:20.380Z,26.40
2022-10-11T05:38:35.218Z,26.80
2022-10-11T05:41:50.220Z,30.00
2022-10-11T05:45:05.772Z,30.50
2022-10-11T05:48:20.173Z,30.00
2022-10-11T05:51:35.508Z,30.00
2022-10-11T05:54:50.494Z,28.20
2022-10-11T05:58:05.252Z,31.00
2022-10-11T06:01:22.825Z,29.50
2022-10-11T06:04:38.816Z,30.00
2022-10-11T06:07:53.406Z,29.40
2022-10-11T06:11:17.398Z,30.00
2022-10-11T06:14:44.113Z,29.00
2022-10-11T06:18:31.097Z,29.00
2022-10-11T06:22:03.767Z,29.50
2022-10-11T06:25:36.314Z,31.00
2022-10-11T06:29:08.864Z,27.00
2022-10-11T06:32:40.856Z,26.00
2022-10-11T06:36:19.558Z,27.00
2022-10-11T06:39:51.520Z,30.00
2022-10-11T06:43:38.448Z,28.40
2022-10-11T06:47:08.852Z,26.00
2022-10-11T06:50:59.646Z,25.00
2022-10-11T06:54:28.553Z,28.75
2022-10-11T06:58:01.485Z,27.40
2022-10-11T07:01:45.585Z,24.40
2022-10-11T07:05:14.608Z,20.60
2022-10-11T07:08:48.128Z,26.00
2022-10-11T07:12:17.158Z,24.00
2022-10-11T07:15:54.649Z,21.00
2022-10-11T07:19:26.738Z,22.50
2022-10-11T07:23:04.833Z,22.67
2022-10-11T07:26:38.487Z,21.00
2022-10-11T07:30:11.913Z,22.25
2022-10-11T07:33:54.181Z,22.00
2022-10-11T07:37:27.578Z,21.60
2022-10-11T07:40:56.341Z,22.00
2022-10-11T07:44:29.394Z,22.80
2022-10-11T07:48:01.878Z,21.00
2022-10-11T07:51:37.355Z,20.40
2022-10-11T07:55:10.868Z,20.40
2022-10-11T07:58:39.427Z,23.20
2022-10-11T08:02:10.597Z,23.00
2022-10-11T08:05:40.016Z,21.00
2022-10-11T08:08:54.332Z,22.50
2022-10-11T08:12:31.392Z,23.00
2022-10-11T08:16:11.150Z,21.60
2022-10-11T08:19:44.213Z,22.60
2022-10-11T08:23:17.661Z,24.40
2022-10-11T08:26:47.993Z,24.00
2022-10-11T08:30:16.989Z,24.00
2022-10-11T08:34:02.856Z,24.00
2022-10-11T08:37:37.249Z,22.20
2022-10-11T08:41:28.280Z,22.00
2022-10-11T08:45:11.408Z,20.40
2022-10-11T08:48:19.698Z,21.60
2022-10-11T08:51:51.875Z,20.00
2022-10-11T08:55:30.238Z,20.50
2022-10-11T08:58:41.648Z,20.20
2022-10-11T09:01:51.002Z,19.40
2022-10-11T09:05:07.359Z,19.00
2022-10-11T09:08:28.853Z,19.00
2022-10-11T09:11:46.776Z,20.00
2022-10-11T09:15:09.364Z,20.40
2022-10-11T09:18:27.783Z,19.50
2022-10-11T09:21:42.119Z,19.40
2022-10-11T09:25:14.961Z,16.60
2022-10-11T09:28:47.418Z,19.50
2022-10-11T09:31:55.757Z,16.80
2022-10-11T09:35:10.215Z,18.75
2022-10-11T09:38:25.964Z,15.50
2022-10-11T09:41:37.530Z,20.60
2022-10-11T09:44:47.352Z,18.00
2022-10-11T09:47:53.734Z,20.40
2022-10-11T09:51:06.474Z,18.60
2022-10-11T09:54:10.868Z,18.00
2022-10-11T09:57:25.693Z,17.00
2022-10-11T10:00:33.714Z,17.80
2022-10-11T10:03:39.232Z,19.40
2022-10-11T10:06:42.615Z,18.20
2022-10-11T10:09:46.457Z,19.75
2022-10-11T10:12:55.087Z,16.00
2022-10-11T10:16:00.179Z,18.00
2022-10-11T10:19:06.073Z,19.40
2022-10-11T10:22:18.867Z,17.60
2022-10-11T10:25:25.824Z,16.20
2022-10-11T10:28:29.226Z,16.00
2022-10-11T10:31:55.221Z,16.00
2022-10-11T10:35:10.303Z,16.00
2022-10-11T10:38:21.688Z,15.20
2022-10-11T10:41:28.331Z,19.00
2022-10-11T10:44:31.711Z,15.00
2022-10-11T10:48:03.209Z,13.00
2022-10-11T10:51:18.439Z,14.67
2022-10-11T10:54:34.253Z,15.00
2022-10-11T10:57:44.653Z,13.60
2022-10-11T11:00:50.898Z,13.00
2022-10-11T11:04:05.934Z,14.00
2022-10-11T11:07:21.778Z,14.75
2022-10-11T11:10:34.088Z,14.00
2022-10-11T11:13:47.942Z,15.00
2022-10-11T11:16:58.465Z,13.00
2022-10-11T11:20:16.670Z,14.60
2022-10-11T11:23:27.261Z,17.40
2022-10-11T11:26:44.210Z,16.00
2022-10-11T11:29:57.462Z,16.00
2022-10-11T11:33:13.177Z,14.00
2022-10-11T11:36:25.012Z,15.00
2022-10-11T11:39:34.134Z,14.00
2022-10-11T11:42:42.297Z,15.00
2022-10-11T11:45:49.886Z,14.25
2022-10-11T11:48:58.718Z,15.00
2022-10-11T11:52:05.597Z,14.20
2022-10-11T11:55:18.012Z,15.00
2022-10-11T11:58:35.846Z,14.00
2022-10-11T12:01:44.910Z,12.00
2022-10-11T12:04:49.765Z,13.00
2022-10-11T12:08:01.961Z,15.00
2022-10-11T12:11:05.849Z,14.60
2022-10-11T12:14:27.689Z,12.00
2022-10-11T12:17:31.086Z,12.60
2022-10-11T12:20:37.224Z,13.00
2022-10-11T12:23:47.431Z,12.60
2022-10-11T12:26:55.856Z,15.40
2022-10-11T12:29:59.206Z,14.00
2022-10-11T12:33:14.114Z,15.00
2022-10-11T12:36:34.802Z,14.00
2022-10-11T12:39:48.582Z,13.00
2022-10-11T12:43:26.808Z,17.00
2022-10-11T12:47:16.583Z,13.50
2022-10-11T12:50:23.823Z,16.00
2022-10-11T12:53:50.649Z,16.00
2022-10-11T12:57:26.601Z,12.60
2022-10-11T13:00:32.613Z,13.00
2022-10-11T13:03:40.801Z,14.00
2022-10-11T13:06:48.735Z,16.00
2022-10-11T13:09:55.592Z,14.60
2022-10-11T13:13:04.561Z,14.00
2022-10-11T13:16:13.967Z,15.00
2022-10-11T13:19:18.686Z,14.00
2022-10-11T13:22:24.361Z,14.60
2022-10-11T13:25:30.524Z,15.40
2022-10-11T13:28:36.717Z,15.00
2022-10-11T13:31:41.745Z,15.60
2022-10-11T13:34:47.958Z,17.00
2022-10-11T13:37:51.429Z,15.75
2022-10-11T13:40:55.900Z,15.80
2022-10-11T13:44:01.630Z,16.60
2022-10-11T13:47:05.868Z,15.00
2022-10-11T13:50:20.841Z,14.40
2022-10-11T13:53:26.089Z,14.00
2022-10-11T13:56:33.230Z,14.00
2022-10-11T13:59:37.904Z,15.40
2022-10-11T14:02:48.035Z,13.40
2022-10-11T14:05:56.205Z,13.00
2022-10-11T14:08:59.699Z,14.40
2022-10-11T14:12:35.907Z,13.60
2022-10-11T14:15:40.574Z,13.00
2022-10-11T14:18:47.389Z,14.50
2022-10-11T14:21:52.811Z,16.00
2022-10-11T14:24:56.092Z,16.75
2022-10-11T14:27:59.816Z,15.60
2022-10-11T14:31:04.944Z,14.00
2022-10-11T14:34:08.996Z,13.50
2022-10-11T14:37:14.394Z,12.00
2022-10-11T14:40:20.033Z,14.00
2022-10-11T14:43:23.346Z,13.00
2022-10-11T14:46:28.327Z,15.40
2022-10-11T14:49:33.764Z,17.20
2022-10-11T14:52:37.186Z,16.80
2022-10-11T14:55:42.508Z,15.00
2022-10-11T14:58:45.754Z,15.00
2022-10-11T15:01:52.075Z,15.00
2022-10-11T15:04:55.373Z,15.60
2022-10-11T15:07:58.943Z,16.33
2022-10-11T15:11:02.148Z,17.20
2022-10-11T15:14:06.113Z,18.50
2022-10-11T15:17:13.483Z,16.00
2022-10-11T15:20:29.297Z,16.60
2022-10-11T15:23:32.943Z,16.50
2022-10-11T15:26:36.486Z,15.00
2022-10-11T15:29:39.727Z,15.20
2022-10-11T15:32:44.699Z,15.00
2022-10-11T15:35:48.488Z,14.00
2022-10-11T15:38:51.987Z,15.00
2022-10-11T15:41:55.585Z,16.40
2022-10-11T15:44:59.009Z,16.20
2022-10-11T15:48:04.266Z,17.80
2022-10-11T15:51:07.687Z,17.80
2022-10-11T15:54:11.003Z,16.60
2022-10-11T15:57:14.250Z,18.00
2022-10-11T16:00:22.056Z,18.00
2022-10-11T16:03:30.387Z,16.40
2022-10-11T16:06:33.659Z,19.00
2022-10-11T16:09:36.953Z,18.00
2022-10-11T16:12:40.386Z,19.40
2022-10-11T16:15:45.397Z,18.00
2022-10-11T16:18:52.703Z,14.20
2022-10-11T16:21:56.164Z,17.00
2022-10-11T16:25:01.055Z,16.20
2022-10-11T16:28:07.987Z,15.75
2022-10-11T16:31:14.482Z,17.40
2022-10-11T16:34:19.925Z,14.00
2022-10-11T16:37:23.966Z,17.00
2022-10-11T16:40:28.389Z,18.00
2022-10-11T16:43:31.689Z,18.75
2022-10-11T16:46:35.683Z,20.00
2022-10-11T16:49:40.383Z,18.00
2022-10-11T16:52:43.568Z,16.00
2022-10-11T16:55:47.120Z,17.40
2022-10-11T16:58:50.402Z,18.00
2022-10-11T17:01:53.670Z,18.00
2022-10-11T17:04:58.818Z,18.67
2022-10-11T17:08:02.068Z,19.00
2022-10-11T17:11:05.463Z,18.00
2022-10-11T17:14:09.308Z,19.20
2022-10-11T17:17:12.873Z,22.00
2022-10-11T17:20:18.532Z,23.00
2022-10-11T17:23:21.851Z,22.00
2022-10-11T17:26:27.369Z,24.00
2022-10-11T17:29:31.048Z,21.60
2022-10-11T17:32:34.315Z,24.20
2022-10-11T17:35:38.899Z,24.00
2022-10-11T17:38:42.258Z,22.33
2022-10-11T17:41:46.443Z,22.00
2022-10-11T17:44:49.737Z,24.50
2022-10-11T17:47:53.033Z,23.60
2022-10-11T17:50:57.686Z,24.40
2022-10-11T17:54:01.538Z,25.40
2022-10-11T17:57:05.209Z,27.00
2022-10-11T18:00:10.026Z,26.00
2022-10-11T18:03:13.328Z,24.25
2022-10-11T18:06:18.003Z,25.75
2022-10-11T18:09:21.415Z,25.60
2022-10-11T18:12:26.056Z,25.33
2022-10-11T18:15:31.581Z,21.50
2022-10-11T18:18:34.825Z,25.00
2022-10-11T18:21:40.018Z,22.40
2022-10-11T18:24:43.463Z,22.50
2022-10-11T18:27:46.969Z,21.00
2022-10-11T18:30:50.284Z,21.80
2022-10-11T18:33:54.877Z,20.00
2022-10-11T18:36:59.506Z,21.60
2022-10-11T18:40:02.791Z,22.00
2022-10-11T18:43:06.310Z,21.60
2022-10-11T18:46:14.247Z,25.00
2022-10-11T18:49:17.441Z,24.00
2022-10-11T18:52:22.108Z,24.00
2022-10-11T18:55:25.355Z,23.50
2022-10-11T18:58:30.333Z,26.00
2022-10-11T19:01:35.631Z,25.00
2022-10-11T19:04:40.162Z,23.00
2022-10-11T19:07:44.985Z,25.80
2022-10-11T19:10:48.481Z,21.00
2022-10-11T19:13:57.448Z,23.00
2022-10-11T19:17:01.357Z,24.00
2022-10-11T19:20:04.782Z,25.00
2022-10-11T19:23:09.415Z,25.00
2022-10-11T19:26:15.610Z,24.40
2022-10-11T19:29:21.304Z,21.40
2022-10-11T19:32:24.877Z,26.00
2022-10-11T19:35:28.122Z,23.75
2022-10-11T19:38:34.086Z,22.80
2022-10-11T19:41:37.960Z,27.00
2022-10-11T19:44:41.560Z,22.60
2022-10-11T19:47:44.832Z,22.00
2022-10-11T19:50:48.088Z,22.67
2022-10-11T19:53:56.441Z,22.00
2022-10-11T19:56:59.705Z,20.75
2022-10-11T20:00:02.999Z,23.40
2022-10-11T20:03:07.882Z,24.00
2022-10-11T20:06:12.508Z,21.20
2022-10-11T20:09:29.149Z,23.50
2022-10-11T20:12:34.799Z,23.00
2022-10-11T20:15:38.624Z,23.40
2022-10-11T20:18:42.724Z,23.00
2022-10-11T20:21:46.418Z,21.50
2022-10-11T20:24:51.049Z,21.00
2022-10-11T20:27:54.383Z,20.60
2022-10-11T20:30:57.841Z,19.25
2022-10-11T20:34:05.026Z,18.00
2022-10-11T20:37:08.250Z,20.40
2022-10-11T20:40:14.547Z,21.40
2022-10-11T20:43:18.115Z,19.60
2022-10-11T20:46:23.310Z,21.00
2022-10-11T20:49:26.683Z,20.00
2022-10-11T20:52:30.031Z,20.00
2022-10-11T20:55:34.726Z,21.80
2022-10-11T20:58:38.930Z,21.00
2022-10-11T21:01:43.184Z,19.00
2022-10-11T21:04:46.472Z,21.40
2022-10-11T21:07:50.352Z,19.00
2022-10-11T21:10:55.911Z,20.00
2022-10-11T21:14:00.664Z,22.00
2022-10-11T21:17:03.883Z,20.00
2022-10-11T21:20:08.204Z,22.50
2022-10-11T21:23:13.346Z,21.00
2022-10-11T21:26:18.674Z,21.50
2022-10-11T21:29:21.881Z,22.00
2022-10-11T21:32:25.276Z,21.00
2022-10-11T21:35:30.010Z,23.00
2022-10-11T21:38:33.573Z,25.40
2022-10-11T21:41:38.183Z,25.40
2022-10-11T21:44:43.442Z,27.00
2022-10-11T21:47:46.732Z,23.40
2022-10-11T21:50:53.663Z,23.40
2022-10-11T21:54:00.352Z,24.00
2022-10-11T21:57:04.976Z,24.50
2022-10-11T22:00:09.261Z,26.75
2022-10-11T22:03:16.579Z,26.00
2022-10-11T22:06:20.315Z,29.80
2022-10-11T22:09:23.772Z,27.00
2022-10-11T22:12:28.510Z,29.00
2022-10-11T22:15:35.133Z,30.00
2022-10-11T22:18:39.294Z,29.80
2022-10-11T22:21:45.014Z,29.20
2022-10-11T22:24:48.484Z,28.60
2022-10-11T22:27:53.256Z,25.00
2022-10-11T22:30:56.906Z,26.00
2022-10-11T22:34:01.682Z,26.60
2022-10-11T22:37:05.194Z,28.50
2022-10-11T22:40:09.545Z,26.67
2022-10-11T22:43:14.235Z,29.25
2022-10-11T22:46:17.914Z,31.00
2022-10-11T22:49:21.137Z,28.60
2022-10-11T22:52:24.475Z,31.20
2022-10-11T22:55:27.818Z,31.00
2022-10-11T22:58:32.463Z,30.60
2022-10-11T23:01:35.719Z,28.60
2022-10-11T23:04:39.258Z,30.00
2022-10-11T23:07:42.629Z,30.00
2022-10-11T23:10:45.852Z,32.00
2022-10-11T23:13:50.452Z,31.60
2022-10-11T23:16:54.104Z,32.00
2022-10-11T23:19:57.567Z,35.00
2022-10-11T23:23:00.755Z,34.00
2022-10-11T23:26:06.952Z,35.00
2022-10-11T23:29:11.633Z,34.00
2022-10-11T23:32:14.910Z,36.00
2022-10-11T23:35:18.196Z,35.00
2022-10-11T23:38:21.650Z,37.75
2022-10-11T23:41:27.132Z,38.00
2022-10-11T23:44:31.780Z,37.00
2022-10-11T23:47:35.509Z,38.00
2022-10-11T23:50:38.886Z,37.00
2022-10-11T23:53:42.154Z,38.00
2022-10-11T23:56:45.430Z,38.00
2022-10-11T23:59:50.051Z,38.00
